This is the latest recevied weather packets stored in our database for station/object CE3MLB. If no packets are shown the sender has not sent any weather packets the latest 10 day(s).
| Time | Temp. | Humidity | Pressure | Rain* | Wind** | Luminosity | Snow |
|---|---|---|---|---|---|---|---|
| 1777535674 | 7.22° C | 99% | 998.6 hPa | 0 mm | - | 0 W/m² | - |
| 1777532072 | 8.33° C | 99% | 998.7 hPa | 0 mm | - | 0 W/m² | - |
| 1777528468 | 8.89° C | 99% | 998.5 hPa | 0 mm | - | 0 W/m² | - |
| 1777524863 | 9.44° C | 99% | 998.3 hPa | 0 mm | - | 0 W/m² | - |
| 1777521260 | 10.56° C | 98% | 998.6 hPa | 0 mm | - | 0 W/m² | - |
| 1777517660 | 11.67° C | 98% | 999.1 hPa | 0 mm | - | 0 W/m² | - |
| 1777514056 | 12.78° C | 96% | 999.1 hPa | 0 mm | - | 0 W/m² | - |
| 1777510454 | 13.33° C | 93% | 999.3 hPa | 0 mm | - | 0 W/m² | - |
| 1777506850 | 16.11° C | 86% | 999 hPa | 0 mm | - | 0 W/m² | - |
| 1777503249 | 18.89° C | 77% | 998.9 hPa | 0 mm | - | 0 W/m² | - |
| 1777499647 | 22.22° C | 63% | 998.8 hPa | 0 mm | - | 7 W/m² | - |
| 1777496048 | 24.44° C | 53% | 998.8 hPa | 0 mm | - | 28 W/m² | - |
| 1777492442 | 25.56° C | 55% | 999 hPa | 0 mm | - | 39 W/m² | - |
| 1777488841 | 27.22° C | 51% | 999.8 hPa | 0 mm | - | 333 W/m² | - |
| 1777485240 | 26.11° C | 55% | 1000.6 hPa | 0 mm | - | 442 W/m² | - |
| 1777481640 | 23.89° C | 56% | 1001.8 hPa | 0 mm | - | 455 W/m² | - |
| 1777478035 | 22.78° C | 65% | 1002.5 hPa | 0 mm | - | 431 W/m² | - |
| 1777474432 | 20° C | 71% | 1003.4 hPa | 0 mm | - | 339 W/m² | - |
| 1777470826 | 16.67° C | 82% | 1003.8 hPa | 0 mm | - | 223 W/m² | - |
| 1777467223 | 11.67° C | 99% | 1003.8 hPa | 0 mm | - | 54 W/m² | - |
| 1777463620 | 6.67° C | 99% | 1003.9 hPa | 0 mm | - | 18 W/m² | - |
| 1777460019 | 6.67° C | 99% | 1003.6 hPa | 0 mm | - | 0 W/m² | - |
| 1777456419 | 7.78° C | 99% | 1004.1 hPa | 0 mm | - | 0 W/m² | - |
| 1777452816 | 9.44° C | 99% | 1003.8 hPa | 0 mm | - | 0 W/m² | - |
| 1777449213 | 10° C | 99% | 1004.4 hPa | 0 mm | - | 0 W/m² | - |
* Rain latest hour (hover to see other rain measurements)
** Current wind speed in m/s (hover to see current wind gust speed)